sensor_id;sensor_type;location;lat;lon;timestamp;pressure;altitude;pressure_sealevel;temperature;humidity
75886;BME280;64561;44.018;10.144;2023-02-01T00:00:33;102341.88;;;5.23;76.96
75886;BME280;64561;44.018;10.144;2023-02-01T00:03:01;102345.97;;;5.33;77.10
75886;BME280;64561;44.018;10.144;2023-02-01T00:05:28;102336.25;;;5.39;76.36
75886;BME280;64561;44.018;10.144;2023-02-01T00:07:54;102332.88;;;5.15;77.25
75886;BME280;64561;44.018;10.144;2023-02-01T00:10:21;102337.16;;;5.16;77.34
75886;BME280;64561;44.018;10.144;2023-02-01T00:12:48;102328.34;;;4.99;78.70
75886;BME280;64561;44.018;10.144;2023-02-01T00:15:15;102319.00;;;4.86;78.78
75886;BME280;64561;44.018;10.144;2023-02-01T00:17:45;102334.13;;;4.85;79.37
75886;BME280;64561;44.018;10.144;2023-02-01T00:20:11;102342.69;;;4.75;80.11
75886;BME280;64561;44.018;10.144;2023-02-01T00:22:38;102333.00;;;4.69;80.42
75886;BME280;64561;44.018;10.144;2023-02-01T00:25:06;102331.03;;;4.65;80.71
75886;BME280;64561;44.018;10.144;2023-02-01T00:27:32;102333.13;;;4.71;80.15
75886;BME280;64561;44.018;10.144;2023-02-01T00:29:59;102337.09;;;4.79;80.02
75886;BME280;64561;44.018;10.144;2023-02-01T00:32:26;102329.28;;;4.88;80.18
75886;BME280;64561;44.018;10.144;2023-02-01T00:34:53;102320.88;;;4.89;79.92
75886;BME280;64561;44.018;10.144;2023-02-01T00:37:19;102328.69;;;4.92;79.95
75886;BME280;64561;44.018;10.144;2023-02-01T00:39:47;102325.72;;;4.97;79.09
75886;BME280;64561;44.018;10.144;2023-02-01T00:42:13;102312.25;;;4.98;78.92
75886;BME280;64561;44.018;10.144;2023-02-01T00:44:40;102314.00;;;5.11;78.55
75886;BME280;64561;44.018;10.144;2023-02-01T00:47:07;102322.97;;;4.94;79.20
75886;BME280;64561;44.018;10.144;2023-02-01T00:49:34;102325.28;;;4.79;80.09
75886;BME280;64561;44.018;10.144;2023-02-01T00:52:01;102326.28;;;4.70;80.81
75886;BME280;64561;44.018;10.144;2023-02-01T00:54:28;102326.38;;;4.71;81.36
75886;BME280;64561;44.018;10.144;2023-02-01T00:56:55;102321.00;;;4.67;81.03
75886;BME280;64561;44.018;10.144;2023-02-01T00:59:21;102319.00;;;4.74;80.49
75886;BME280;64561;44.018;10.144;2023-02-01T01:01:48;102313.50;;;4.80;79.68
75886;BME280;64561;44.018;10.144;2023-02-01T01:04:15;102323.63;;;4.68;81.15
75886;BME280;64561;44.018;10.144;2023-02-01T01:06:42;102323.41;;;4.65;81.73
75886;BME280;64561;44.018;10.144;2023-02-01T01:09:09;102320.88;;;4.65;81.12
75886;BME280;64561;44.018;10.144;2023-02-01T01:11:37;102319.00;;;4.74;81.46
75886;BME280;64561;44.018;10.144;2023-02-01T01:14:06;102315.59;;;4.74;80.96
75886;BME280;64561;44.018;10.144;2023-02-01T01:16:35;102310.38;;;4.84;80.69
75886;BME280;64561;44.018;10.144;2023-02-01T01:19:03;102307.75;;;4.94;79.85
75886;BME280;64561;44.018;10.144;2023-02-01T01:21:30;102301.47;;;4.89;80.06
75886;BME280;64561;44.018;10.144;2023-02-01T01:23:57;102308.41;;;4.92;80.01
75886;BME280;64561;44.018;10.144;2023-02-01T01:26:26;102303.78;;;4.86;80.54
75886;BME280;64561;44.018;10.144;2023-02-01T01:28:57;102302.13;;;4.87;80.83
75886;BME280;64561;44.018;10.144;2023-02-01T01:31:24;102298.72;;;4.86;80.40
75886;BME280;64561;44.018;10.144;2023-02-01T01:33:53;102303.56;;;4.83;80.67
75886;BME280;64561;44.018;10.144;2023-02-01T01:36:21;102290.78;;;4.81;80.61
75886;BME280;64561;44.018;10.144;2023-02-01T01:38:48;102302.25;;;4.88;80.62
75886;BME280;64561;44.018;10.144;2023-02-01T01:41:19;102297.25;;;4.90;80.98
75886;BME280;64561;44.018;10.144;2023-02-01T01:46:24;102291.22;;;4.99;80.96
75886;BME280;64561;44.018;10.144;2023-02-01T01:49:01;102289.78;;;5.03;80.56
75886;BME280;64561;44.018;10.144;2023-02-01T01:51:31;102290.75;;;4.93;81.09
75886;BME280;64561;44.018;10.144;2023-02-01T01:54:07;102285.81;;;4.95;81.08
75886;BME280;64561;44.018;10.144;2023-02-01T01:56:36;102277.19;;;4.93;81.02
75886;BME280;64561;44.018;10.144;2023-02-01T01:59:03;102279.31;;;4.87;81.69
75886;BME280;64561;44.018;10.144;2023-02-01T02:01:32;102266.09;;;4.79;82.11
75886;BME280;64561;44.018;10.144;2023-02-01T02:03:59;102265.88;;;4.88;81.49
75886;BME280;64561;44.018;10.144;2023-02-01T02:09:02;102253.41;;;4.91;81.97
75886;BME280;64561;44.018;10.144;2023-02-01T02:11:32;102251.75;;;4.91;81.85
75886;BME280;64561;44.018;10.144;2023-02-01T02:13:59;102249.50;;;4.96;81.48
75886;BME280;64561;44.018;10.144;2023-02-01T02:16:30;102250.50;;;4.98;81.70
75886;BME280;64561;44.018;10.144;2023-02-01T02:30:28;102241.88;;;5.08;79.96
75886;BME280;64561;44.018;10.144;2023-02-01T02:36:19;102254.59;;;4.96;79.89
75886;BME280;64561;44.018;10.144;2023-02-01T02:42:08;102252.03;;;4.96;79.55
75886;BME280;64561;44.018;10.144;2023-02-01T02:47:59;102256.59;;;4.88;79.26
75886;BME280;64561;44.018;10.144;2023-02-01T02:50:37;102253.41;;;4.91;78.73
75886;BME280;64561;44.018;10.144;2023-02-01T02:56:42;102258.81;;;4.72;79.52
75886;BME280;64561;44.018;10.144;2023-02-01T02:59:29;102269.09;;;4.62;79.65
75886;BME280;64561;44.018;10.144;2023-02-01T03:02:16;102268.31;;;4.63;80.29
75886;BME280;64561;44.018;10.144;2023-02-01T03:05:03;102266.34;;;4.58;80.44
75886;BME280;64561;44.018;10.144;2023-02-01T03:13:13;102267.00;;;4.68;80.15
75886;BME280;64561;44.018;10.144;2023-02-01T03:15:48;102263.66;;;4.69;80.39
75886;BME280;64561;44.018;10.144;2023-02-01T03:18:30;102268.06;;;4.71;80.53
75886;BME280;64561;44.018;10.144;2023-02-01T03:21:00;102270.97;;;4.64;80.69
75886;BME280;64561;44.018;10.144;2023-02-01T03:23:33;102266.31;;;4.70;80.74
75886;BME280;64561;44.018;10.144;2023-02-01T03:26:02;102267.19;;;4.71;80.75
75886;BME280;64561;44.018;10.144;2023-02-01T03:28:33;102258.81;;;4.72;80.64
75886;BME280;64561;44.018;10.144;2023-02-01T03:31:02;102267.06;;;4.69;80.92
75886;BME280;64561;44.018;10.144;2023-02-01T03:33:30;102266.41;;;4.72;81.32
75886;BME280;64561;44.018;10.144;2023-02-01T03:36:05;102269.41;;;4.66;82.09
75886;BME280;64561;44.018;10.144;2023-02-01T03:43:50;102263.88;;;4.72;82.57
75886;BME280;64561;44.018;10.144;2023-02-01T03:46:27;102260.59;;;4.73;83.54
75886;BME280;64561;44.018;10.144;2023-02-01T03:49:03;102258.59;;;4.80;83.52
75886;BME280;64561;44.018;10.144;2023-02-01T03:51:35;102259.88;;;4.87;83.61
75886;BME280;64561;44.018;10.144;2023-02-01T03:54:06;102264.84;;;4.97;83.21
75886;BME280;64561;44.018;10.144;2023-02-01T03:56:37;102262.72;;;5.15;83.15
75886;BME280;64561;44.018;10.144;2023-02-01T03:59:05;102269.66;;;5.18;82.88
75886;BME280;64561;44.018;10.144;2023-02-01T04:01:34;102268.88;;;5.19;83.30
75886;BME280;64561;44.018;10.144;2023-02-01T04:04:01;102267.25;;;5.08;82.99
75886;BME280;64561;44.018;10.144;2023-02-01T04:06:29;102271.81;;;5.00;83.46
75886;BME280;64561;44.018;10.144;2023-02-01T04:08:59;102273.13;;;4.95;84.25
75886;BME280;64561;44.018;10.144;2023-02-01T04:11:26;102274.34;;;5.00;84.16
75886;BME280;64561;44.018;10.144;2023-02-01T04:13:54;102274.84;;;5.08;83.76
75886;BME280;64561;44.018;10.144;2023-02-01T04:16:20;102272.75;;;5.14;83.99
75886;BME280;64561;44.018;10.144;2023-02-01T04:18:47;102279.47;;;5.13;84.55
75886;BME280;64561;44.018;10.144;2023-02-01T04:21:15;102284.31;;;5.22;84.37
75886;BME280;64561;44.018;10.144;2023-02-01T04:23:41;102282.94;;;5.39;83.75
75886;BME280;64561;44.018;10.144;2023-02-01T04:26:08;102281.50;;;5.42;83.37
75886;BME280;64561;44.018;10.144;2023-02-01T04:28:35;102287.66;;;5.46;83.55
75886;BME280;64561;44.018;10.144;2023-02-01T04:31:02;102291.25;;;5.49;83.52
75886;BME280;64561;44.018;10.144;2023-02-01T04:33:29;102291.19;;;5.48;83.64
75886;BME280;64561;44.018;10.144;2023-02-01T04:35:56;102291.47;;;5.53;83.58
75886;BME280;64561;44.018;10.144;2023-02-01T04:38:23;102291.59;;;5.54;83.49
75886;BME280;64561;44.018;10.144;2023-02-01T04:40:50;102284.94;;;5.56;82.93
75886;BME280;64561;44.018;10.144;2023-02-01T04:43:17;102276.56;;;5.57;82.73
75886;BME280;64561;44.018;10.144;2023-02-01T04:45:48;102293.25;;;5.54;82.55
75886;BME280;64561;44.018;10.144;2023-02-01T04:48:16;102292.69;;;5.58;82.38
75886;BME280;64561;44.018;10.144;2023-02-01T04:50:46;102291.44;;;5.64;81.97
75886;BME280;64561;44.018;10.144;2023-02-01T04:53:15;102291.59;;;5.54;82.37
75886;BME280;64561;44.018;10.144;2023-02-01T04:55:43;102292.47;;;5.30;83.59
75886;BME280;64561;44.018;10.144;2023-02-01T04:58:10;102281.78;;;5.22;83.94
75886;BME280;64561;44.018;10.144;2023-02-01T05:00:37;102287.72;;;5.22;84.45
75886;BME280;64561;44.018;10.144;2023-02-01T05:03:04;102285.50;;;5.27;83.88
75886;BME280;64561;44.018;10.144;2023-02-01T05:05:31;102284.28;;;5.34;83.90
75886;BME280;64561;44.018;10.144;2023-02-01T05:07:58;102284.69;;;5.40;83.87
75886;BME280;64561;44.018;10.144;2023-02-01T05:10:24;102280.28;;;5.37;83.74
75886;BME280;64561;44.018;10.144;2023-02-01T05:12:51;102274.13;;;5.34;84.08
75886;BME280;64561;44.018;10.144;2023-02-01T05:15:36;102276.53;;;5.32;83.60
75886;BME280;64561;44.018;10.144;2023-02-01T05:18:03;102282.00;;;5.50;82.78
75886;BME280;64561;44.018;10.144;2023-02-01T05:20:30;102282.16;;;5.65;82.59
75886;BME280;64561;44.018;10.144;2023-02-01T05:22:57;102283.81;;;5.64;82.31
75886;BME280;64561;44.018;10.144;2023-02-01T05:25:24;102292.69;;;5.58;82.88
75886;BME280;64561;44.018;10.144;2023-02-01T05:27:51;102290.72;;;5.54;83.12
75886;BME280;64561;44.018;10.144;2023-02-01T05:30:18;102299.22;;;5.54;82.74
75886;BME280;64561;44.018;10.144;2023-02-01T05:32:44;102295.88;;;5.55;82.45
75886;BME280;64561;44.018;10.144;2023-02-01T05:35:11;102301.59;;;5.64;82.07
75886;BME280;64561;44.018;10.144;2023-02-01T05:37:38;102299.56;;;5.72;82.22
75886;BME280;64561;44.018;10.144;2023-02-01T05:40:05;102299.19;;;5.79;82.22
75886;BME280;64561;44.018;10.144;2023-02-01T05:42:32;102298.63;;;5.83;82.29
75886;BME280;64561;44.018;10.144;2023-02-01T05:44:59;102298.06;;;5.87;81.63
75886;BME280;64561;44.018;10.144;2023-02-01T05:47:26;102290.91;;;5.82;82.32
75886;BME280;64561;44.018;10.144;2023-02-01T05:49:53;102293.94;;;5.89;81.54
75886;BME280;64561;44.018;10.144;2023-02-01T05:52:19;102295.09;;;5.93;81.37
75886;BME280;64561;44.018;10.144;2023-02-01T05:54:47;102300.19;;;6.06;81.70
75886;BME280;64561;44.018;10.144;2023-02-01T05:57:14;102306.47;;;6.11;81.84
75886;BME280;64561;44.018;10.144;2023-02-01T05:59:42;102295.03;;;6.05;82.18
75886;BME280;64561;44.018;10.144;2023-02-01T06:02:11;102305.84;;;6.02;82.04
75886;BME280;64561;44.018;10.144;2023-02-01T06:04:38;102306.06;;;6.05;82.35
75886;BME280;64561;44.018;10.144;2023-02-01T06:07:06;102301.66;;;6.03;82.43
75886;BME280;64561;44.018;10.144;2023-02-01T06:09:35;102309.47;;;6.06;82.51
75886;BME280;64561;44.018;10.144;2023-02-01T06:12:03;102312.00;;;6.06;82.92
75886;BME280;64561;44.018;10.144;2023-02-01T06:14:30;102321.84;;;6.01;82.73
75886;BME280;64561;44.018;10.144;2023-02-01T06:16:57;102315.63;;;5.96;82.93
75886;BME280;64561;44.018;10.144;2023-02-01T06:19:23;102308.06;;;5.98;83.04
75886;BME280;64561;44.018;10.144;2023-02-01T06:21:50;102312.56;;;6.02;82.69
75886;BME280;64561;44.018;10.144;2023-02-01T06:24:17;102314.56;;;6.06;82.83
75886;BME280;64561;44.018;10.144;2023-02-01T06:26:44;102322.06;;;6.04;82.82
75886;BME280;64561;44.018;10.144;2023-02-01T06:29:11;102313.06;;;5.96;83.55
75886;BME280;64561;44.018;10.144;2023-02-01T06:31:38;102301.03;;;5.93;83.42
75886;BME280;64561;44.018;10.144;2023-02-01T06:34:06;102305.75;;;6.01;83.22
75886;BME280;64561;44.018;10.144;2023-02-01T06:36:33;102314.63;;;6.07;83.31
75886;BME280;64561;44.018;10.144;2023-02-01T06:38:59;102304.88;;;6.00;83.87
75886;BME280;64561;44.018;10.144;2023-02-01T06:41:26;102313.28;;;5.99;84.04
75886;BME280;64561;44.018;10.144;2023-02-01T06:43:55;102314.63;;;6.07;83.73
75886;BME280;64561;44.018;10.144;2023-02-01T06:46:22;102314.38;;;6.16;83.72
75886;BME280;64561;44.018;10.144;2023-02-01T06:48:49;102315.56;;;6.08;83.87
75886;BME280;64561;44.018;10.144;2023-02-01T06:51:27;102320.63;;;6.08;83.67
75886;BME280;64561;44.018;10.144;2023-02-01T06:53:55;102329.88;;;6.07;83.88
75886;BME280;64561;44.018;10.144;2023-02-01T06:56:22;102323.38;;;6.11;83.78
75886;BME280;64561;44.018;10.144;2023-02-01T06:58:49;102319.44;;;6.16;83.87
75886;BME280;64561;44.018;10.144;2023-02-01T07:01:16;102325.06;;;6.24;83.80
75886;BME280;64561;44.018;10.144;2023-02-01T07:03:47;102337.75;;;6.24;84.24
75886;BME280;64561;44.018;10.144;2023-02-01T07:06:15;102339.91;;;6.17;85.11
75886;BME280;64561;44.018;10.144;2023-02-01T07:08:42;102336.84;;;6.10;84.61
75886;BME280;64561;44.018;10.144;2023-02-01T07:11:11;102339.59;;;6.13;84.56
75886;BME280;64561;44.018;10.144;2023-02-01T07:13:38;102329.81;;;6.19;84.36
75886;BME280;64561;44.018;10.144;2023-02-01T07:16:08;102336.19;;;6.26;83.87
75886;BME280;64561;44.018;10.144;2023-02-01T07:18:36;102337.09;;;6.26;83.71
75886;BME280;64561;44.018;10.144;2023-02-01T07:21:03;102339.31;;;6.22;85.14
75886;BME280;64561;44.018;10.144;2023-02-01T07:23:30;102341.06;;;6.23;84.60
75886;BME280;64561;44.018;10.144;2023-02-01T07:25:59;102340.38;;;6.25;84.25
75886;BME280;64561;44.018;10.144;2023-02-01T07:28:29;102343.13;;;6.28;85.09
75886;BME280;64561;44.018;10.144;2023-02-01T07:31:26;102336.81;;;6.35;84.50
75886;BME280;64561;44.018;10.144;2023-02-01T07:33:55;102327.72;;;6.38;83.96
75886;BME280;64561;44.018;10.144;2023-02-01T07:36:22;102344.91;;;6.43;84.05
75886;BME280;64561;44.018;10.144;2023-02-01T07:38:49;102341.91;;;6.48;83.71
75886;BME280;64561;44.018;10.144;2023-02-01T07:41:19;102340.63;;;6.55;83.51
75886;BME280;64561;44.018;10.144;2023-02-01T07:43:46;102342.50;;;6.57;84.47
75886;BME280;64561;44.018;10.144;2023-02-01T07:46:13;102344.25;;;6.58;84.26
75886;BME280;64561;44.018;10.144;2023-02-01T07:48:44;102348.56;;;6.59;83.96
75886;BME280;64561;44.018;10.144;2023-02-01T07:51:13;102352.88;;;6.60;83.88
75886;BME280;64561;44.018;10.144;2023-02-01T07:53:41;102348.28;;;6.68;83.64
75886;BME280;64561;44.018;10.144;2023-02-01T07:56:16;102357.00;;;6.72;83.83
75886;BME280;64561;44.018;10.144;2023-02-01T07:58:47;102352.19;;;6.76;83.67
75886;BME280;64561;44.018;10.144;2023-02-01T08:01:20;102364.72;;;6.86;83.01
75886;BME280;64561;44.018;10.144;2023-02-01T08:03:49;102349.16;;;6.95;82.65
75886;BME280;64561;44.018;10.144;2023-02-01T08:06:16;102355.09;;;7.09;81.87
75886;BME280;64561;44.018;10.144;2023-02-01T08:08:46;102348.53;;;7.13;81.92
75886;BME280;64561;44.018;10.144;2023-02-01T08:11:14;102360.38;;;7.25;81.87
75886;BME280;64561;44.018;10.144;2023-02-01T08:13:41;102367.78;;;7.36;81.95
75886;BME280;64561;44.018;10.144;2023-02-01T08:16:10;102364.94;;;7.31;82.05
75886;BME280;64561;44.018;10.144;2023-02-01T08:18:38;102372.59;;;7.31;82.25
75886;BME280;64561;44.018;10.144;2023-02-01T08:21:14;102368.28;;;7.30;81.53
75886;BME280;64561;44.018;10.144;2023-02-01T08:23:42;102365.94;;;7.33;80.66
75886;BME280;64561;44.018;10.144;2023-02-01T08:26:18;102368.09;;;7.40;81.26
75886;BME280;64561;44.018;10.144;2023-02-01T08:28:47;102363.88;;;7.41;81.32
75886;BME280;64561;44.018;10.144;2023-02-01T08:31:18;102357.31;;;7.44;79.49
75886;BME280;64561;44.018;10.144;2023-02-01T08:33:51;102352.22;;;7.44;79.45
75886;BME280;64561;44.018;10.144;2023-02-01T08:36:19;102351.59;;;7.48;79.50
75886;BME280;64561;44.018;10.144;2023-02-01T08:38:46;102348.34;;;7.51;79.84
75886;BME280;64561;44.018;10.144;2023-02-01T08:41:16;102350.22;;;7.53;80.35
75886;BME280;64561;44.018;10.144;2023-02-01T08:43:43;102352.06;;;7.56;79.85
75886;BME280;64561;44.018;10.144;2023-02-01T08:46:11;102344.31;;;7.54;80.14
75886;BME280;64561;44.018;10.144;2023-02-01T08:48:38;102345.19;;;7.55;79.64
75886;BME280;64561;44.018;10.144;2023-02-01T08:51:10;102344.44;;;7.56;79.45
75886;BME280;64561;44.018;10.144;2023-02-01T08:53:38;102341.88;;;7.56;80.03
75886;BME280;64561;44.018;10.144;2023-02-01T08:56:08;102344.63;;;7.59;79.40
75886;BME280;64561;44.018;10.144;2023-02-01T08:58:35;102343.81;;;7.60;79.33
75886;BME280;64561;44.018;10.144;2023-02-01T09:01:07;102332.94;;;7.63;79.66
75886;BME280;64561;44.018;10.144;2023-02-01T09:03:35;102346.47;;;7.62;80.45
75886;BME280;64561;44.018;10.144;2023-02-01T09:06:03;102348.16;;;7.76;80.30
75886;BME280;64561;44.018;10.144;2023-02-01T09:08:31;102338.66;;;8.01;79.28
75886;BME280;64561;44.018;10.144;2023-02-01T09:11:02;102338.50;;;8.13;79.16
75886;BME280;64561;44.018;10.144;2023-02-01T09:13:30;102344.75;;;8.18;79.48
75886;BME280;64561;44.018;10.144;2023-02-01T09:15:56;102349.22;;;8.22;79.15
75886;BME280;64561;44.018;10.144;2023-02-01T09:18:23;102350.44;;;8.14;79.06
75886;BME280;64561;44.018;10.144;2023-02-01T09:20:50;102354.66;;;8.14;78.85
75886;BME280;64561;44.018;10.144;2023-02-01T09:23:17;102353.78;;;8.13;78.47
75886;BME280;64561;44.018;10.144;2023-02-01T09:25:46;102347.63;;;8.10;78.78
75886;BME280;64561;44.018;10.144;2023-02-01T09:28:19;102355.88;;;8.06;79.24
75886;BME280;64561;44.018;10.144;2023-02-01T09:30:46;102354.00;;;8.03;79.05
75886;BME280;64561;44.018;10.144;2023-02-01T09:33:13;102352.28;;;8.02;79.08
75886;BME280;64561;44.018;10.144;2023-02-01T09:35:40;102351.22;;;7.98;78.76
75886;BME280;64561;44.018;10.144;2023-02-01T09:38:07;102346.56;;;8.06;78.86
75886;BME280;64561;44.018;10.144;2023-02-01T09:40:34;102342.38;;;8.21;77.51
75886;BME280;64561;44.018;10.144;2023-02-01T09:45:59;102353.84;;;8.43;77.08
75886;BME280;64561;44.018;10.144;2023-02-01T09:48:33;102349.63;;;8.43;76.82
75886;BME280;64561;44.018;10.144;2023-02-01T09:51:04;102349.69;;;8.45;77.12
75886;BME280;64561;44.018;10.144;2023-02-01T09:53:36;102349.78;;;8.46;77.50
75886;BME280;64561;44.018;10.144;2023-02-01T09:56:07;102355.25;;;8.53;77.30
75886;BME280;64561;44.018;10.144;2023-02-01T09:58:44;102358.59;;;8.66;77.01
75886;BME280;64561;44.018;10.144;2023-02-01T10:01:22;102357.44;;;8.76;77.39
75886;BME280;64561;44.018;10.144;2023-02-01T10:03:56;102358.97;;;8.89;76.77
75886;BME280;64561;44.018;10.144;2023-02-01T10:09:11;102358.84;;;9.02;76.35
75886;BME280;64561;44.018;10.144;2023-02-01T10:20:36;102358.63;;;9.14;74.51
75886;BME280;64561;44.018;10.144;2023-02-01T10:26:23;102354.13;;;9.41;73.94
75886;BME280;64561;44.018;10.144;2023-02-01T10:28:57;102342.19;;;9.40;74.09
75886;BME280;64561;44.018;10.144;2023-02-01T10:31:28;102329.56;;;9.43;74.79
75886;BME280;64561;44.018;10.144;2023-02-01T10:34:01;102335.53;;;9.44;74.40
75886;BME280;64561;44.018;10.144;2023-02-01T10:36:35;102331.84;;;9.38;74.71
75886;BME280;64561;44.018;10.144;2023-02-01T10:39:04;102320.06;;;9.41;74.60
75886;BME280;64561;44.018;10.144;2023-02-01T10:41:39;102322.88;;;9.45;74.63
75886;BME280;64561;44.018;10.144;2023-02-01T10:44:27;102316.69;;;9.74;73.47
75886;BME280;64561;44.018;10.144;2023-02-01T10:46:55;102314.38;;;9.79;72.88
75886;BME280;64561;44.018;10.144;2023-02-01T10:52:02;102296.56;;;9.80;73.79
75886;BME280;64561;44.018;10.144;2023-02-01T10:54:36;102289.84;;;9.99;75.33
75886;BME280;64561;44.018;10.144;2023-02-01T10:57:08;102293.38;;;10.19;74.03
75886;BME280;64561;44.018;10.144;2023-02-01T10:59:35;102304.16;;;10.29;73.17
75886;BME280;64561;44.018;10.144;2023-02-01T11:02:20;102314.03;;;10.40;73.56
75886;BME280;64561;44.018;10.144;2023-02-01T11:04:49;102306.75;;;10.47;71.98
75886;BME280;64561;44.018;10.144;2023-02-01T11:07:25;102308.94;;;10.58;73.31
75886;BME280;64561;44.018;10.144;2023-02-01T11:09:54;102303.75;;;10.56;73.46
75886;BME280;64561;44.018;10.144;2023-02-01T11:12:30;102296.50;;;10.47;72.49
75886;BME280;64561;44.018;10.144;2023-02-01T11:15:23;102297.97;;;10.60;73.66
75886;BME280;64561;44.018;10.144;2023-02-01T11:17:53;102286.31;;;10.67;73.60
75886;BME280;64561;44.018;10.144;2023-02-01T11:22:59;102265.13;;;10.69;73.34
75886;BME280;64561;44.018;10.144;2023-02-01T11:25:26;102254.78;;;10.68;71.97
75886;BME280;64561;44.018;10.144;2023-02-01T11:27:54;102254.72;;;10.84;71.96
75886;BME280;64561;44.018;10.144;2023-02-01T11:33:03;102245.31;;;11.03;71.33
75886;BME280;64561;44.018;10.144;2023-02-01T11:35:35;102246.84;;;11.18;72.55
75886;BME280;64561;44.018;10.144;2023-02-01T11:38:15;102241.63;;;11.35;71.13
75886;BME280;64561;44.018;10.144;2023-02-01T11:40:44;102244.50;;;11.42;70.92
75886;BME280;64561;44.018;10.144;2023-02-01T11:43:27;102239.84;;;11.53;70.06
75886;BME280;64561;44.018;10.144;2023-02-01T11:45:59;102230.59;;;11.57;72.67
75886;BME280;64561;44.018;10.144;2023-02-01T11:48:29;102240.34;;;11.65;69.92
75886;BME280;64561;44.018;10.144;2023-02-01T11:56:26;102230.28;;;11.89;70.36
75886;BME280;64561;44.018;10.144;2023-02-01T11:59:05;102234.59;;;11.90;67.65
75886;BME280;64561;44.018;10.144;2023-02-01T12:08:10;102233.38;;;12.24;65.17
75886;BME280;64561;44.018;10.144;2023-02-01T12:32:09;102196.19;;;12.35;64.03
75886;BME280;64561;44.018;10.144;2023-02-01T12:35:18;102186.75;;;12.34;63.77
75886;BME280;64561;44.018;10.144;2023-02-01T12:38:07;102205.22;;;12.48;65.00
75886;BME280;64561;44.018;10.144;2023-02-01T12:43:58;102201.44;;;12.39;61.50
75886;BME280;64561;44.018;10.144;2023-02-01T12:46:30;102203.78;;;12.32;62.40
75886;BME280;64561;44.018;10.144;2023-02-01T12:51:43;102195.84;;;12.26;60.62
75886;BME280;64561;44.018;10.144;2023-02-01T12:54:32;102188.84;;;12.22;60.21
75886;BME280;64561;44.018;10.144;2023-02-01T12:57:01;102176.75;;;12.20;59.49
75886;BME280;64561;44.018;10.144;2023-02-01T12:59:36;102175.94;;;12.21;59.14
75886;BME280;64561;44.018;10.144;2023-02-01T13:02:23;102177.69;;;12.22;58.10
75886;BME280;64561;44.018;10.144;2023-02-01T13:05:13;102175.38;;;12.50;59.44
75886;BME280;64561;44.018;10.144;2023-02-01T13:08:01;102169.84;;;12.40;63.52
75886;BME280;64561;44.018;10.144;2023-02-01T13:10:40;102169.72;;;12.37;64.74
75886;BME280;64561;44.018;10.144;2023-02-01T13:15:53;102147.94;;;12.27;65.10
75886;BME280;64561;44.018;10.144;2023-02-01T13:18:24;102142.91;;;12.30;65.26
75886;BME280;64561;44.018;10.144;2023-02-01T13:20:58;102141.09;;;12.27;67.08
75886;BME280;64561;44.018;10.144;2023-02-01T13:23:31;102141.47;;;12.14;67.82
75886;BME280;64561;44.018;10.144;2023-02-01T13:26:00;102133.41;;;12.05;67.79
75886;BME280;64561;44.018;10.144;2023-02-01T13:28:49;102125.47;;;11.99;68.69
75886;BME280;64561;44.018;10.144;2023-02-01T13:37:34;102135.53;;;11.73;70.37
75886;BME280;64561;44.018;10.144;2023-02-01T13:42:51;102130.59;;;11.57;72.05
75886;BME280;64561;44.018;10.144;2023-02-01T13:45:25;102126.22;;;11.54;72.10
75886;BME280;64561;44.018;10.144;2023-02-01T13:47:55;102126.06;;;11.50;71.74
75886;BME280;64561;44.018;10.144;2023-02-01T13:50:38;102132.66;;;11.44;71.94
75886;BME280;64561;44.018;10.144;2023-02-01T13:55:41;102131.53;;;11.38;71.90
75886;BME280;64561;44.018;10.144;2023-02-01T14:00:42;102123.47;;;11.29;72.71
75886;BME280;64561;44.018;10.144;2023-02-01T14:03:18;102120.69;;;11.24;72.48
75886;BME280;64561;44.018;10.144;2023-02-01T14:08:22;102121.53;;;11.04;72.23
75886;BME280;64561;44.018;10.144;2023-02-01T14:10:54;102138.53;;;11.02;72.04
75886;BME280;64561;44.018;10.144;2023-02-01T14:24:00;102138.63;;;10.84;73.30
75886;BME280;64561;44.018;10.144;2023-02-01T14:29:10;102143.00;;;10.86;74.21
75886;BME280;64561;44.018;10.144;2023-02-01T14:37:06;102162.31;;;11.18;73.66
75886;BME280;64561;44.018;10.144;2023-02-01T14:42:32;102156.31;;;11.18;73.88
75886;BME280;64561;44.018;10.144;2023-02-01T14:52:50;102156.66;;;11.06;75.37
75886;BME280;64561;44.018;10.144;2023-02-01T14:55:24;102164.56;;;11.11;75.31
75886;BME280;64561;44.018;10.144;2023-02-01T14:57:55;102167.66;;;11.23;75.47
75886;BME280;64561;44.018;10.144;2023-02-01T15:00:27;102166.22;;;11.30;75.30
75886;BME280;64561;44.018;10.144;2023-02-01T15:05:55;102161.53;;;11.19;75.35
75886;BME280;64561;44.018;10.144;2023-02-01T15:08:28;102157.88;;;11.14;75.55
75886;BME280;64561;44.018;10.144;2023-02-01T15:10:59;102155.06;;;11.08;76.32
75886;BME280;64561;44.018;10.144;2023-02-01T15:13:28;102151.63;;;11.08;76.24
75886;BME280;64561;44.018;10.144;2023-02-01T15:16:12;102146.28;;;11.03;76.09
75886;BME280;64561;44.018;10.144;2023-02-01T15:18:41;102146.22;;;11.02;76.24
75886;BME280;64561;44.018;10.144;2023-02-01T15:21:21;102148.44;;;10.94;76.67
75886;BME280;64561;44.018;10.144;2023-02-01T15:24:10;102153.28;;;10.88;77.55
75886;BME280;64561;44.018;10.144;2023-02-01T15:26:38;102153.16;;;10.85;77.01
75886;BME280;64561;44.018;10.144;2023-02-01T15:29:04;102164.34;;;10.87;76.86
75886;BME280;64561;44.018;10.144;2023-02-01T15:31:37;102172.63;;;10.81;76.86
75886;BME280;64561;44.018;10.144;2023-02-01T15:34:05;102177.53;;;10.76;76.99
75886;BME280;64561;44.018;10.144;2023-02-01T15:36:32;102172.16;;;10.70;77.36
75886;BME280;64561;44.018;10.144;2023-02-01T15:39:14;102174.50;;;10.66;77.56
75886;BME280;64561;44.018;10.144;2023-02-01T15:41:56;102168.72;;;10.70;77.88